sensor_id;sensor_type;location;lat;lon;timestamp;temperature;humidity
37032;DHT22;22940;52.266;10.536;2022-12-07T00:02:17;4.40;99.90
37032;DHT22;22940;52.266;10.536;2022-12-07T00:04:42;4.50;99.90
37032;DHT22;22940;52.266;10.536;2022-12-07T00:07:08;4.40;99.90
37032;DHT22;22940;52.266;10.536;2022-12-07T00:09:33;4.40;99.90
37032;DHT22;22940;52.266;10.536;2022-12-07T00:11:59;4.40;99.90
37032;DHT22;22940;52.266;10.536;2022-12-07T00:14:24;4.40;99.90
37032;DHT22;22940;52.266;10.536;2022-12-07T00:16:50;4.50;99.90
37032;DHT22;22940;52.266;10.536;2022-12-07T00:19:16;4.60;99.90
37032;DHT22;22940;52.266;10.536;2022-12-07T00:21:41;4.60;99.90
37032;DHT22;22940;52.266;10.536;2022-12-07T00:24:07;4.70;99.90
37032;DHT22;22940;52.266;10.536;2022-12-07T00:26:34;4.60;99.90
37032;DHT22;22940;52.266;10.536;2022-12-07T00:29:01;4.60;99.90
37032;DHT22;22940;52.266;10.536;2022-12-07T00:31:28;4.50;99.90
37032;DHT22;22940;52.266;10.536;2022-12-07T00:33:55;4.60;99.90
37032;DHT22;22940;52.266;10.536;2022-12-07T00:36:21;4.60;99.90
37032;DHT22;22940;52.266;10.536;2022-12-07T00:38:47;4.50;99.90
37032;DHT22;22940;52.266;10.536;2022-12-07T00:41:14;4.40;99.90
37032;DHT22;22940;52.266;10.536;2022-12-07T00:43:40;4.40;99.90
37032;DHT22;22940;52.266;10.536;2022-12-07T00:46:06;4.40;99.90
37032;DHT22;22940;52.266;10.536;2022-12-07T00:48:32;4.40;99.90
37032;DHT22;22940;52.266;10.536;2022-12-07T00:50:57;4.60;99.90
37032;DHT22;22940;52.266;10.536;2022-12-07T00:53:23;4.40;99.90
37032;DHT22;22940;52.266;10.536;2022-12-07T00:55:49;4.40;99.90
37032;DHT22;22940;52.266;10.536;2022-12-07T00:58:15;4.70;99.90
37032;DHT22;22940;52.266;10.536;2022-12-07T01:00:41;4.70;99.90
37032;DHT22;22940;52.266;10.536;2022-12-07T01:03:08;4.60;99.90
37032;DHT22;22940;52.266;10.536;2022-12-07T01:05:34;4.60;99.90
37032;DHT22;22940;52.266;10.536;2022-12-07T01:08:00;4.50;99.90
37032;DHT22;22940;52.266;10.536;2022-12-07T01:10:25;4.50;99.90
37032;DHT22;22940;52.266;10.536;2022-12-07T01:12:51;4.50;99.90
37032;DHT22;22940;52.266;10.536;2022-12-07T01:15:16;4.50;99.90
37032;DHT22;22940;52.266;10.536;2022-12-07T01:17:42;4.40;99.90
37032;DHT22;22940;52.266;10.536;2022-12-07T01:20:07;4.40;99.90
37032;DHT22;22940;52.266;10.536;2022-12-07T01:22:37;4.40;99.90
37032;DHT22;22940;52.266;10.536;2022-12-07T01:25:03;4.50;99.90
37032;DHT22;22940;52.266;10.536;2022-12-07T01:27:28;4.50;99.90
37032;DHT22;22940;52.266;10.536;2022-12-07T01:29:54;4.50;99.90
37032;DHT22;22940;52.266;10.536;2022-12-07T01:32:19;4.60;99.90
37032;DHT22;22940;52.266;10.536;2022-12-07T01:34:47;4.50;99.90
37032;DHT22;22940;52.266;10.536;2022-12-07T01:42:04;4.60;99.90
37032;DHT22;22940;52.266;10.536;2022-12-07T01:44:30;4.60;99.90
37032;DHT22;22940;52.266;10.536;2022-12-07T01:46:58;4.70;99.90
37032;DHT22;22940;52.266;10.536;2022-12-07T01:52:03;4.70;99.90
37032;DHT22;22940;52.266;10.536;2022-12-07T01:54:31;4.60;99.90
37032;DHT22;22940;52.266;10.536;2022-12-07T01:56:57;4.70;99.90
37032;DHT22;22940;52.266;10.536;2022-12-07T01:59:23;4.60;99.90
37032;DHT22;22940;52.266;10.536;2022-12-07T02:01:51;4.50;99.90
37032;DHT22;22940;52.266;10.536;2022-12-07T02:04:17;4.60;99.90
37032;DHT22;22940;52.266;10.536;2022-12-07T02:06:43;4.60;99.90
37032;DHT22;22940;52.266;10.536;2022-12-07T02:09:08;4.60;99.90
37032;DHT22;22940;52.266;10.536;2022-12-07T02:11:34;4.60;99.90
37032;DHT22;22940;52.266;10.536;2022-12-07T02:14:00;4.60;99.90
37032;DHT22;22940;52.266;10.536;2022-12-07T02:16:28;4.70;99.90
37032;DHT22;22940;52.266;10.536;2022-12-07T02:29:37;4.90;99.90
37032;DHT22;22940;52.266;10.536;2022-12-07T02:32:08;4.80;99.90
37032;DHT22;22940;52.266;10.536;2022-12-07T02:34:43;4.70;99.90
37032;DHT22;22940;52.266;10.536;2022-12-07T02:37:11;4.50;99.90
37032;DHT22;22940;52.266;10.536;2022-12-07T02:39:41;4.50;99.90
37032;DHT22;22940;52.266;10.536;2022-12-07T02:42:09;4.50;99.90
37032;DHT22;22940;52.266;10.536;2022-12-07T02:44:37;4.50;99.90
37032;DHT22;22940;52.266;10.536;2022-12-07T02:47:04;4.60;99.90
37032;DHT22;22940;52.266;10.536;2022-12-07T03:04:33;4.70;99.90
37032;DHT22;22940;52.266;10.536;2022-12-07T03:07:11;4.90;99.90
37032;DHT22;22940;52.266;10.536;2022-12-07T03:09:46;4.90;99.90
37032;DHT22;22940;52.266;10.536;2022-12-07T03:17:16;4.10;99.90
37032;DHT22;22940;52.266;10.536;2022-12-07T03:19:43;5.10;99.90
37032;DHT22;22940;52.266;10.536;2022-12-07T03:22:11;5.00;99.90
37032;DHT22;22940;52.266;10.536;2022-12-07T03:24:47;5.10;99.90
37032;DHT22;22940;52.266;10.536;2022-12-07T03:27:19;5.10;99.90
37032;DHT22;22940;52.266;10.536;2022-12-07T03:29:56;5.30;99.90
37032;DHT22;22940;52.266;10.536;2022-12-07T03:32:35;5.30;99.90
37032;DHT22;22940;52.266;10.536;2022-12-07T03:35:03;5.20;99.90
37032;DHT22;22940;52.266;10.536;2022-12-07T03:37:40;5.20;99.90
37032;DHT22;22940;52.266;10.536;2022-12-07T03:40:16;5.30;99.90
37032;DHT22;22940;52.266;10.536;2022-12-07T03:42:43;5.50;99.90
37032;DHT22;22940;52.266;10.536;2022-12-07T03:45:09;5.30;99.90
37032;DHT22;22940;52.266;10.536;2022-12-07T03:52:42;5.30;99.90
37032;DHT22;22940;52.266;10.536;2022-12-07T03:55:29;5.30;99.90
37032;DHT22;22940;52.266;10.536;2022-12-07T03:57:58;5.30;99.90
37032;DHT22;22940;52.266;10.536;2022-12-07T04:00:25;5.30;99.90
37032;DHT22;22940;52.266;10.536;2022-12-07T04:02:53;5.30;99.90
37032;DHT22;22940;52.266;10.536;2022-12-07T04:05:19;5.30;99.90
37032;DHT22;22940;52.266;10.536;2022-12-07T04:07:44;5.40;99.90
37032;DHT22;22940;52.266;10.536;2022-12-07T04:10:11;5.50;99.90
37032;DHT22;22940;52.266;10.536;2022-12-07T04:12:36;5.60;99.90
37032;DHT22;22940;52.266;10.536;2022-12-07T04:15:02;5.50;99.90
37032;DHT22;22940;52.266;10.536;2022-12-07T04:17:28;5.40;99.90
37032;DHT22;22940;52.266;10.536;2022-12-07T04:19:53;5.40;99.90
37032;DHT22;22940;52.266;10.536;2022-12-07T04:22:19;5.50;99.90
37032;DHT22;22940;52.266;10.536;2022-12-07T04:24:44;5.50;99.90
37032;DHT22;22940;52.266;10.536;2022-12-07T04:27:10;5.50;99.90
37032;DHT22;22940;52.266;10.536;2022-12-07T04:29:35;5.50;99.90
37032;DHT22;22940;52.266;10.536;2022-12-07T04:32:01;5.40;99.90
37032;DHT22;22940;52.266;10.536;2022-12-07T04:34:26;5.40;99.90
37032;DHT22;22940;52.266;10.536;2022-12-07T04:36:52;5.40;99.90
37032;DHT22;22940;52.266;10.536;2022-12-07T04:39:22;5.30;99.90
37032;DHT22;22940;52.266;10.536;2022-12-07T04:41:48;5.30;99.90
37032;DHT22;22940;52.266;10.536;2022-12-07T04:44:13;5.20;99.90
37032;DHT22;22940;52.266;10.536;2022-12-07T04:46:40;5.50;99.90
37032;DHT22;22940;52.266;10.536;2022-12-07T04:49:06;5.40;99.90
37032;DHT22;22940;52.266;10.536;2022-12-07T04:51:31;5.30;99.90
37032;DHT22;22940;52.266;10.536;2022-12-07T04:53:57;5.40;99.90
37032;DHT22;22940;52.266;10.536;2022-12-07T04:56:23;5.30;99.90
37032;DHT22;22940;52.266;10.536;2022-12-07T04:58:49;5.40;99.90
37032;DHT22;22940;52.266;10.536;2022-12-07T05:01:15;5.40;99.90
37032;DHT22;22940;52.266;10.536;2022-12-07T05:03:40;5.50;99.90
37032;DHT22;22940;52.266;10.536;2022-12-07T05:06:06;5.50;99.90
37032;DHT22;22940;52.266;10.536;2022-12-07T05:08:32;5.40;99.90
37032;DHT22;22940;52.266;10.536;2022-12-07T05:10:58;5.30;99.90
37032;DHT22;22940;52.266;10.536;2022-12-07T05:13:24;5.30;99.90
37032;DHT22;22940;52.266;10.536;2022-12-07T05:15:49;5.30;99.90
37032;DHT22;22940;52.266;10.536;2022-12-07T05:18:15;5.20;99.90
37032;DHT22;22940;52.266;10.536;2022-12-07T05:20:41;5.20;99.90
37032;DHT22;22940;52.266;10.536;2022-12-07T05:23:06;5.20;99.90
37032;DHT22;22940;52.266;10.536;2022-12-07T05:25:32;5.20;99.90
37032;DHT22;22940;52.266;10.536;2022-12-07T05:27:57;5.10;99.90
37032;DHT22;22940;52.266;10.536;2022-12-07T05:30:23;5.30;99.90
37032;DHT22;22940;52.266;10.536;2022-12-07T05:32:49;5.20;99.90
37032;DHT22;22940;52.266;10.536;2022-12-07T05:35:14;5.20;99.90
37032;DHT22;22940;52.266;10.536;2022-12-07T05:37:40;5.20;99.90
37032;DHT22;22940;52.266;10.536;2022-12-07T05:40:06;5.10;99.90
37032;DHT22;22940;52.266;10.536;2022-12-07T05:42:31;5.20;99.90
37032;DHT22;22940;52.266;10.536;2022-12-07T05:44:57;5.30;99.90
37032;DHT22;22940;52.266;10.536;2022-12-07T05:47:22;5.20;99.90
37032;DHT22;22940;52.266;10.536;2022-12-07T05:49:48;5.30;99.90
37032;DHT22;22940;52.266;10.536;2022-12-07T05:52:13;5.20;99.90
37032;DHT22;22940;52.266;10.536;2022-12-07T05:54:39;5.10;99.90
37032;DHT22;22940;52.266;10.536;2022-12-07T05:57:04;5.10;99.90
37032;DHT22;22940;52.266;10.536;2022-12-07T05:59:30;5.20;99.90
37032;DHT22;22940;52.266;10.536;2022-12-07T06:04:28;5.20;99.90
37032;DHT22;22940;52.266;10.536;2022-12-07T06:06:54;5.20;99.90
37032;DHT22;22940;52.266;10.536;2022-12-07T06:09:20;5.20;99.90
37032;DHT22;22940;52.266;10.536;2022-12-07T06:11:46;5.30;99.90
37032;DHT22;22940;52.266;10.536;2022-12-07T06:14:31;5.20;99.90
37032;DHT22;22940;52.266;10.536;2022-12-07T06:16:56;5.30;99.90
37032;DHT22;22940;52.266;10.536;2022-12-07T06:19:22;5.10;99.90
37032;DHT22;22940;52.266;10.536;2022-12-07T06:21:47;5.10;99.90
37032;DHT22;22940;52.266;10.536;2022-12-07T06:24:13;5.10;99.90
37032;DHT22;22940;52.266;10.536;2022-12-07T06:26:39;5.00;99.90
37032;DHT22;22940;52.266;10.536;2022-12-07T06:29:05;4.90;99.90
37032;DHT22;22940;52.266;10.536;2022-12-07T06:31:30;4.80;99.90
37032;DHT22;22940;52.266;10.536;2022-12-07T06:34:00;4.70;99.90
37032;DHT22;22940;52.266;10.536;2022-12-07T06:36:26;4.60;99.90
37032;DHT22;22940;52.266;10.536;2022-12-07T06:38:51;4.60;99.90
37032;DHT22;22940;52.266;10.536;2022-12-07T06:41:17;4.60;99.90
37032;DHT22;22940;52.266;10.536;2022-12-07T06:43:42;4.60;99.90
37032;DHT22;22940;52.266;10.536;2022-12-07T06:46:08;4.40;99.90
37032;DHT22;22940;52.266;10.536;2022-12-07T06:48:33;4.50;99.90
37032;DHT22;22940;52.266;10.536;2022-12-07T06:50:59;4.50;99.90
37032;DHT22;22940;52.266;10.536;2022-12-07T06:53:24;4.40;99.90
37032;DHT22;22940;52.266;10.536;2022-12-07T06:55:50;4.60;99.90
37032;DHT22;22940;52.266;10.536;2022-12-07T06:58:15;4.70;99.90
37032;DHT22;22940;52.266;10.536;2022-12-07T07:00:41;4.60;99.90
37032;DHT22;22940;52.266;10.536;2022-12-07T07:03:06;4.70;99.90
37032;DHT22;22940;52.266;10.536;2022-12-07T07:05:32;4.80;99.90
37032;DHT22;22940;52.266;10.536;2022-12-07T07:07:57;4.80;99.90
37032;DHT22;22940;52.266;10.536;2022-12-07T07:10:23;4.90;99.90
37032;DHT22;22940;52.266;10.536;2022-12-07T07:12:48;4.90;99.90
37032;DHT22;22940;52.266;10.536;2022-12-07T07:15:14;5.00;99.90
37032;DHT22;22940;52.266;10.536;2022-12-07T07:17:39;5.10;99.90
37032;DHT22;22940;52.266;10.536;2022-12-07T07:20:05;5.10;99.90
37032;DHT22;22940;52.266;10.536;2022-12-07T07:22:31;5.10;99.90
37032;DHT22;22940;52.266;10.536;2022-12-07T07:24:56;5.40;99.90
37032;DHT22;22940;52.266;10.536;2022-12-07T07:27:22;5.30;99.90
37032;DHT22;22940;52.266;10.536;2022-12-07T07:29:47;5.10;99.90
37032;DHT22;22940;52.266;10.536;2022-12-07T07:32:13;5.10;99.90
37032;DHT22;22940;52.266;10.536;2022-12-07T07:34:39;5.20;99.90
37032;DHT22;22940;52.266;10.536;2022-12-07T07:37:04;5.30;99.90
